Terminal Aerodrome Forecast
Issued by NWS

Home | Current Version | Previous Version | Graphics & Text | Print | Product List | Glossary On
Versions: 1 2 3 4 5 6 7 8 9 10 11 12 13 14 15 16 17 18 19 20 21 22 23 24 25 26 27 28
658
FTUS43 KABR 230540
TAFPIR
TAF
KPIR 230540Z 2306/2406 32012KT P6SM VCSH OVC015
     FM231300 36008KT P6SM OVC010
     FM231700 01008KT P6SM -SHRA OVC010
     FM232200 04008KT 4SM BR OVC008
     FM240000 04009KT 3SM SHRA BR OVC008=

USA.gov is the U.S. government's official web portal to all federal, state and local government web resources and services.